Time;durP1;ratioP1;P1;durP2;ratioP2;P2;SDS_P1;SDS_P2;PMS_P1;PMS_P2;Temp;Humidity;BMP_temperature;BMP_pressure;BME280_temperature;BME280_humidity;BME280_pressure;Samples;Min_cycle;Max_cycle;Signal;HPM_P1;HPM_P2
2022/07/16 00:01:57;;;;;;;1.10;1.10;;;29.80;45.70;;;;;;5144200;27;20490;-65
2022/07/16 00:04:31;;;;;;;1.17;1.07;;;29.80;47.70;;;;;;5133277;27;20459;-67
2022/07/16 00:07:02;;;;;;;1.37;1.13;;;29.80;48.40;;;;;;5151633;27;20490;-66
2022/07/16 00:09:32;;;;;;;1.07;0.90;;;29.80;48.50;;;;;;5143499;27;20447;-66
2022/07/16 00:12:03;;;;;;;0.80;0.80;;;29.80;48.50;;;;;;5143539;27;20474;-65
2022/07/16 00:14:34;;;;;;;1.40;1.30;;;29.80;48.70;;;;;;5143319;27;20915;-65
2022/07/16 00:17:05;;;;;;;1.67;1.20;;;29.90;46.30;;;;;;5155257;27;20453;-65
2022/07/16 00:19:36;;;;;;;0.83;0.70;;;29.70;46.70;;;;;;5164030;27;20525;-66
2022/07/16 00:22:07;;;;;;;1.00;0.90;;;29.60;47.70;;;;;;5143313;27;20518;-65
2022/07/16 00:24:38;;;;;;;0.80;0.80;;;29.60;47.30;;;;;;5143643;27;20439;-66
2022/07/16 00:27:09;;;;;;;0.90;0.90;;;29.60;47.10;;;;;;5155630;27;20443;-66
2022/07/16 00:29:40;;;;;;;1.23;1.13;;;29.50;49.70;;;;;;5148399;27;20463;-66
2022/07/16 00:32:10;;;;;;;2.03;1.10;;;29.60;49.90;;;;;;5153698;27;20596;-66
2022/07/16 00:34:43;;;;;;;1.23;1.20;;;29.60;49.10;;;;;;5154502;27;20446;-65
2022/07/16 00:37:14;;;;;;;1.30;1.20;;;29.60;50.00;;;;;;5145295;27;20794;-66
2022/07/16 00:39:44;;;;;;;1.30;1.20;;;29.70;51.10;;;;;;5143409;27;20530;-66
2022/07/16 00:42:15;;;;;;;1.10;1.10;;;29.70;49.70;;;;;;5149525;27;20465;-65
2022/07/16 00:44:46;;;;;;;1.13;1.03;;;29.70;50.60;;;;;;5143440;27;20457;-66
2022/07/16 00:47:17;;;;;;;2.70;1.40;;;29.70;49.70;;;;;;5142880;27;20461;-66
2022/07/16 00:49:49;;;;;;;1.40;1.30;;;29.70;51.60;;;;;;5143554;27;20451;-65
2022/07/16 00:52:20;;;;;;;1.27;1.10;;;29.50;49.90;;;;;;5156708;27;20546;-66
2022/07/16 00:54:52;;;;;;;1.30;1.20;;;29.30;50.80;;;;;;5168144;27;20446;-66
2022/07/16 00:57:22;;;;;;;1.50;1.40;;;29.20;51.20;;;;;;5149005;27;20477;-65
2022/07/16 00:59:53;;;;;;;1.50;1.40;;;29.30;53.50;;;;;;5147317;27;20907;-65
2022/07/16 01:02:24;;;;;;;1.60;1.50;;;29.30;50.70;;;;;;5154435;27;20579;-66
2022/07/16 01:04:56;;;;;;;1.60;1.50;;;29.30;51.20;;;;;;5155159;27;20496;-66
2022/07/16 01:07:27;;;;;;;1.60;1.50;;;29.20;51.00;;;;;;5167217;27;20485;-66
2022/07/16 01:09:59;;;;;;;1.23;1.07;;;29.30;52.30;;;;;;5167645;27;20535;-65
2022/07/16 01:12:30;;;;;;;1.03;1.03;;;29.30;52.30;;;;;;5152437;27;20654;-66
2022/07/16 01:15:02;;;;;;;1.40;1.30;;;29.40;53.30;;;;;;5167616;27;20458;-65
2022/07/16 01:17:33;;;;;;;1.20;1.10;;;29.40;54.10;;;;;;5150620;27;20988;-65
2022/07/16 01:20:07;;;;;;;1.23;1.13;;;29.40;53.60;;;;;;5147974;27;20442;-65
2022/07/16 01:22:38;;;;;;;2.13;1.93;;;29.30;53.70;;;;;;5153730;27;20483;-66
2022/07/16 01:25:12;;;;;;;1.53;1.43;;;29.20;53.10;;;;;;5167452;27;20439;-65
2022/07/16 01:27:43;;;;;;;1.77;1.67;;;29.20;52.80;;;;;;5140694;27;20449;-65
2022/07/16 01:30:14;;;;;;;2.53;2.37;;;29.20;54.90;;;;;;5140061;27;20531;-66
2022/07/16 01:32:45;;;;;;;1.53;1.43;;;29.10;55.40;;;;;;5152494;27;20483;-66
2022/07/16 01:35:16;;;;;;;2.17;2.00;;;29.10;54.80;;;;;;5154411;27;20537;-66
2022/07/16 01:37:47;;;;;;;6.40;5.17;;;29.10;56.10;;;;;;5167387;27;20474;-65
2022/07/16 01:40:19;;;;;;;6.37;5.93;;;28.90;55.70;;;;;;5163504;27;20450;-65
2022/07/16 01:42:50;;;;;;;3.60;3.30;;;28.80;55.80;;;;;;5161443;27;20441;-66
2022/07/16 01:45:21;;;;;;;3.23;2.93;;;28.70;55.80;;;;;;5166857;27;20456;-65
2022/07/16 01:47:52;;;;;;;1.90;1.60;;;28.70;54.80;;;;;;5167191;27;20481;-66
2022/07/16 01:50:22;;;;;;;1.97;1.87;;;28.70;55.50;;;;;;5165203;27;20860;-66
2022/07/16 01:52:53;;;;;;;1.90;1.80;;;28.70;54.70;;;;;;5164705;27;20480;-66
2022/07/16 01:55:26;;;;;;;1.50;1.40;;;28.50;55.10;;;;;;5166500;27;20453;-65
2022/07/16 01:57:57;;;;;;;1.50;1.40;;;28.50;55.90;;;;;;5166478;27;20455;-65
2022/07/16 02:00:28;;;;;;;1.30;1.20;;;28.40;56.00;;;;;;5148108;27;20559;-66
2022/07/16 02:02:59;;;;;;;1.80;1.40;;;28.30;56.90;;;;;;5157986;27;20487;-66
2022/07/16 02:05:30;;;;;;;1.40;1.30;;;28.30;56.50;;;;;;5143170;27;20490;-65
2022/07/16 02:08:01;;;;;;;1.27;1.20;;;28.30;56.40;;;;;;5161460;27;20853;-66
2022/07/16 02:10:33;;;;;;;1.57;1.47;;;28.20;57.20;;;;;;5166127;27;20460;-65
2022/07/16 02:13:05;;;;;;;1.70;1.60;;;28.20;56.80;;;;;;5154887;27;20475;-65
2022/07/16 02:15:36;;;;;;;1.80;1.33;;;28.10;57.10;;;;;;5145451;27;20498;-65
2022/07/16 02:18:07;;;;;;;1.40;1.30;;;28.10;58.40;;;;;;5145718;27;20926;-66
2022/07/16 02:20:38;;;;;;;4.73;1.23;;;28.00;57.10;;;;;;5145695;27;20495;-66
2022/07/16 02:23:09;;;;;;;1.20;1.10;;;28.00;57.80;;;;;;5153248;27;20537;-66
2022/07/16 02:25:41;;;;;;;1.57;1.47;;;27.90;58.20;;;;;;5145456;27;20525;-65
2022/07/16 02:28:12;;;;;;;1.40;1.30;;;27.90;57.80;;;;;;5136973;27;20596;-66
2022/07/16 02:30:45;;;;;;;2.47;2.10;;;27.80;57.40;;;;;;5145057;27;20460;-65
2022/07/16 02:33:18;;;;;;;3.57;1.97;;;27.80;57.90;;;;;;5149307;27;20589;-66
2022/07/16 02:35:49;;;;;;;1.50;1.40;;;27.70;60.70;;;;;;5157796;27;20503;-66
2022/07/16 02:38:19;;;;;;;1.00;1.00;;;27.60;60.10;;;;;;5145411;27;20445;-66
2022/07/16 02:40:52;;;;;;;1.00;1.00;;;27.60;59.00;;;;;;5161036;27;20451;-65
2022/07/16 02:43:23;;;;;;;2.17;1.30;;;27.60;59.20;;;;;;5151199;27;20445;-65
2022/07/16 02:45:53;;;;;;;1.30;1.20;;;27.50;60.00;;;;;;5165407;27;20479;-65
2022/07/16 02:48:25;;;;;;;1.20;1.00;;;27.40;59.50;;;;;;5165603;27;20461;-66
2022/07/16 02:50:55;;;;;;;1.10;1.00;;;27.40;59.50;;;;;;5147229;27;20487;-65
2022/07/16 02:53:27;;;;;;;0.90;0.90;;;27.30;61.10;;;;;;5148702;27;20467;-66
2022/07/16 02:55:59;;;;;;;1.43;1.10;;;27.20;62.90;;;;;;5165149;27;20455;-66
2022/07/16 02:58:30;;;;;;;1.47;1.37;;;27.00;63.90;;;;;;5165422;27;20451;-66
2022/07/16 03:01:01;;;;;;;1.50;1.40;;;27.00;65.00;;;;;;5164693;27;20512;-65
2022/07/16 03:03:32;;;;;;;1.10;1.00;;;26.80;63.80;;;;;;5147302;27;20558;-66
2022/07/16 03:06:03;;;;;;;1.23;1.13;;;26.80;63.80;;;;;;5141424;27;20448;-65
2022/07/16 03:08:34;;;;;;;1.10;1.00;;;26.70;64.90;;;;;;5165417;27;20453;-65
2022/07/16 03:11:06;;;;;;;1.40;1.30;;;26.70;64.70;;;;;;5161584;27;20446;-66
2022/07/16 03:13:37;;;;;;;1.23;0.97;;;26.60;67.50;;;;;;5158713;27;20972;-65
2022/07/16 03:16:08;;;;;;;1.13;1.03;;;26.50;67.50;;;;;;5164652;27;20461;-66
2022/07/16 03:18:39;;;;;;;2.80;0.77;;;26.50;66.70;;;;;;5149433;27;20462;-65
2022/07/16 03:21:10;;;;;;;1.10;1.00;;;26.40;66.70;;;;;;5154930;27;20454;-65
2022/07/16 03:23:40;;;;;;;1.00;1.00;;;26.30;68.30;;;;;;5165110;27;20450;-65
2022/07/16 03:26:13;;;;;;;1.50;1.40;;;26.30;68.20;;;;;;5127388;27;20466;-66
2022/07/16 03:28:44;;;;;;;1.93;1.83;;;26.20;67.80;;;;;;5144106;27;20455;-65
2022/07/16 03:31:17;;;;;;;2.10;2.00;;;26.10;68.30;;;;;;5146118;27;20456;-65
2022/07/16 03:33:47;;;;;;;3.20;2.23;;;26.00;68.50;;;;;;5146794;27;20487;-66
2022/07/16 03:36:18;;;;;;;4.67;3.07;;;25.80;69.40;;;;;;5145740;27;20527;-66
2022/07/16 03:39:04;;;;;;;2.70;2.20;;;25.60;70.50;;;;;;5164947;27;20441;-65
2022/07/16 03:41:39;;;;;;;1.93;1.83;;;25.60;71.10;;;;;;5151066;27;20474;-65
2022/07/16 03:44:12;;;;;;;2.63;2.43;;;25.50;73.20;;;;;;5150801;27;20547;-66
2022/07/16 03:46:43;;;;;;;2.10;1.90;;;25.40;74.90;;;;;;5143594;27;20459;-65
2022/07/16 03:49:14;;;;;;;1.87;1.77;;;25.30;77.20;;;;;;5158388;27;20947;-65
2022/07/16 03:51:44;;;;;;;3.00;1.50;;;25.20;79.30;;;;;;5146375;27;20524;-65
2022/07/16 03:54:15;;;;;;;1.50;1.40;;;25.00;81.70;;;;;;5143653;27;20472;-65
2022/07/16 03:56:48;;;;;;;1.50;1.03;;;25.00;83.70;;;;;;5143541;27;20457;-65
2022/07/16 03:59:18;;;;;;;1.30;1.20;;;24.80;85.80;;;;;;5143658;27;20455;-65
2022/07/16 04:01:52;;;;;;;1.30;1.20;;;24.70;87.40;;;;;;5154287;27;20548;-65
2022/07/16 04:04:23;;;;;;;1.13;1.07;;;24.60;89.10;;;;;;5159306;27;20463;-65
2022/07/16 04:06:54;;;;;;;1.20;1.10;;;24.50;90.20;;;;;;5142427;27;20493;-66
2022/07/16 04:09:25;;;;;;;1.20;1.10;;;24.40;90.90;;;;;;5143380;27;20443;-66
2022/07/16 04:11:57;;;;;;;1.10;0.70;;;24.30;91.70;;;;;;5149181;27;20444;-65
2022/07/16 04:14:28;;;;;;;0.60;0.60;;;24.20;92.50;;;;;;5163519;27;20954;-65
2022/07/16 04:16:59;;;;;;;1.90;1.23;;;24.10;93.20;;;;;;5148828;27;20468;-65
2022/07/16 04:19:29;;;;;;;1.07;1.00;;;23.90;94.00;;;;;;5143596;27;20453;-65
2022/07/16 04:22:00;;;;;;;1.10;0.93;;;23.90;94.60;;;;;;5155138;27;20473;-65
2022/07/16 04:24:31;;;;;;;1.20;0.93;;;23.80;94.60;;;;;;5164024;27;20854;-65
2022/07/16 04:27:03;;;;;;;0.87;0.87;;;23.70;94.80;;;;;;5153721;27;20441;-65
2022/07/16 04:29:34;;;;;;;0.80;0.60;;;23.60;94.80;;;;;;5137903;27;20525;-65
2022/07/16 04:32:06;;;;;;;0.83;0.70;;;23.50;95.10;;;;;;5152528;27;20465;-65
2022/07/16 04:34:37;;;;;;;1.17;0.70;;;23.30;95.60;;;;;;5143094;27;20556;-65
2022/07/16 04:37:07;;;;;;;0.70;0.70;;;23.20;95.50;;;;;;5142429;27;20445;-65
2022/07/16 04:39:38;;;;;;;0.60;0.60;;;23.10;95.60;;;;;;5144587;27;20456;-65
2022/07/16 04:42:11;;;;;;;0.50;0.50;;;23.00;95.90;;;;;;5154642;27;20458;-65
2022/07/16 04:44:42;;;;;;;1.23;0.90;;;22.90;96.20;;;;;;5153035;27;20933;-65
2022/07/16 04:47:13;;;;;;;0.80;0.70;;;22.90;96.70;;;;;;5159888;27;20451;-66
2022/07/16 04:49:43;;;;;;;0.60;0.60;;;22.80;97.10;;;;;;5163515;27;20443;-66
2022/07/16 04:52:15;;;;;;;1.00;0.97;;;22.80;97.30;;;;;;5160403;27;20511;-66
2022/07/16 04:54:46;;;;;;;1.10;0.60;;;22.70;97.90;;;;;;5142703;27;20551;-66
2022/07/16 04:57:18;;;;;;;0.87;0.80;;;22.60;98.40;;;;;;5162104;27;20912;-65
2022/07/16 04:59:50;;;;;;;1.10;0.80;;;22.60;98.90;;;;;;5162798;27;20550;-66
2022/07/16 05:05:10;;;;;;;0.60;0.50;;;22.40;99.90;;;;;;5141738;27;20463;-66
2022/07/16 05:07:41;;;;;;;0.60;0.57;;;22.20;99.90;;;;;;5163473;27;20502;-66
2022/07/16 05:10:12;;;;;;;0.60;0.47;;;22.20;99.90;;;;;;5162868;27;20448;-66
2022/07/16 05:12:44;;;;;;;1.77;0.53;;;22.10;99.90;;;;;;5147319;27;20455;-66
2022/07/16 05:15:15;;;;;;;0.63;0.50;;;22.00;99.90;;;;;;5149378;27;20487;-66
2022/07/16 05:17:46;;;;;;;1.40;0.80;;;21.90;99.90;;;;;;5136072;27;20583;-65
2022/07/16 05:20:17;;;;;;;0.63;0.53;;;21.90;99.90;;;;;;5143726;27;20424;-65
2022/07/16 05:22:48;;;;;;;1.27;0.80;;;21.80;99.90;;;;;;5142434;27;20445;-66
2022/07/16 05:25:19;;;;;;;1.27;0.67;;;21.70;99.90;;;;;;5144665;27;20437;-66
2022/07/16 05:27:51;;;;;;;0.60;0.50;;;21.60;99.90;;;;;;5163341;27;20451;-65
2022/07/16 05:30:22;;;;;;;0.50;0.50;;;21.60;99.90;;;;;;5162362;27;20509;-65
2022/07/16 05:32:54;;;;;;;0.50;0.50;;;21.50;99.90;;;;;;5158039;27;20455;-65
2022/07/16 05:35:25;;;;;;;0.87;0.40;;;21.40;99.90;;;;;;5144105;27;20958;-65
2022/07/16 05:37:55;;;;;;;0.60;0.60;;;21.30;99.90;;;;;;5163611;27;20455;-65
2022/07/16 05:40:27;;;;;;;0.60;0.60;;;21.30;99.90;;;;;;5163680;27;20418;-65
2022/07/16 05:42:59;;;;;;;0.53;0.40;;;21.20;99.90;;;;;;5163443;27;20899;-65
2022/07/16 05:45:30;;;;;;;0.50;0.50;;;21.20;99.90;;;;;;5151459;27;20435;-65
2022/07/16 05:48:01;;;;;;;0.60;0.60;;;21.10;99.90;;;;;;5159483;27;20557;-65
2022/07/16 05:50:32;;;;;;;0.67;0.50;;;21.10;99.90;;;;;;5165298;27;20459;-64
2022/07/16 05:53:02;;;;;;;0.50;0.50;;;21.10;99.90;;;;;;5166420;27;20917;-64
2022/07/16 05:55:33;;;;;;;0.50;0.50;;;21.10;99.90;;;;;;5162480;27;20460;-64
2022/07/16 05:58:06;;;;;;;0.63;0.63;;;21.00;99.90;;;;;;5161739;27;20454;-64
2022/07/16 06:00:37;;;;;;;1.10;0.57;;;20.90;99.90;;;;;;5165753;27;20430;-66
2022/07/16 06:03:08;;;;;;;1.23;0.70;;;20.80;99.90;;;;;;5165978;27;20478;-64
2022/07/16 06:05:39;;;;;;;0.60;0.47;;;20.80;99.90;;;;;;5151494;27;20464;-64
2022/07/16 06:08:09;;;;;;;0.60;0.53;;;20.80;99.90;;;;;;5160342;27;20535;-64
2022/07/16 06:10:40;;;;;;;0.60;0.60;;;20.80;99.90;;;;;;5165805;27;20436;-64
2022/07/16 06:13:13;;;;;;;1.23;0.70;;;20.70;99.90;;;;;;5165986;27;20763;-64
2022/07/16 06:15:43;;;;;;;0.77;0.63;;;20.70;99.90;;;;;;5165450;27;20502;-64
2022/07/16 06:18:14;;;;;;;0.60;0.60;;;20.70;99.90;;;;;;5160810;27;20453;-64
2022/07/16 06:20:45;;;;;;;1.00;0.70;;;20.60;99.90;;;;;;5145587;27;20936;-64
2022/07/16 06:23:16;;;;;;;0.70;0.70;;;20.60;99.90;;;;;;5145027;27;20423;-66
2022/07/16 06:25:47;;;;;;;0.50;0.50;;;20.50;99.90;;;;;;5145475;27;20417;-64
2022/07/16 06:28:19;;;;;;;0.70;0.70;;;20.40;99.90;;;;;;5141217;27;20448;-64
2022/07/16 06:30:50;;;;;;;0.60;0.60;;;20.40;99.90;;;;;;5132469;27;20456;-65
2022/07/16 06:33:21;;;;;;;0.90;0.67;;;20.40;99.90;;;;;;5149051;27;20422;-63
2022/07/16 06:35:52;;;;;;;0.77;0.67;;;20.40;99.90;;;;;;5161642;27;20481;-64
2022/07/16 06:38:22;;;;;;;1.53;0.90;;;20.30;99.90;;;;;;5145679;27;20423;-64
2022/07/16 06:40:53;;;;;;;1.57;0.97;;;20.40;99.90;;;;;;5146316;27;20450;-64
2022/07/16 06:43:26;;;;;;;0.90;0.70;;;20.30;99.90;;;;;;5145033;27;20772;-64
2022/07/16 06:45:56;;;;;;;1.20;0.90;;;20.20;99.90;;;;;;5145777;27;20459;-64
2022/07/16 06:48:27;;;;;;;1.50;0.93;;;20.20;99.90;;;;;;5162156;27;20447;-64
2022/07/16 06:50:58;;;;;;;1.10;0.93;;;20.10;99.90;;;;;;5163749;27;20432;-64
2022/07/16 06:53:29;;;;;;;2.40;1.20;;;20.10;99.90;;;;;;5165205;27;20444;-64
2022/07/16 06:56:03;;;;;;;0.77;0.70;;;20.00;99.90;;;;;;5159667;27;20472;-64
2022/07/16 06:58:36;;;;;;;0.70;0.70;;;20.00;99.90;;;;;;5165089;27;20739;-64
2022/07/16 07:01:08;;;;;;;1.00;0.70;;;20.00;99.90;;;;;;5165151;27;20535;-64
2022/07/16 07:03:40;;;;;;;1.47;0.97;;;19.90;99.90;;;;;;5151800;27;20448;-64
2022/07/16 07:06:12;;;;;;;1.03;0.93;;;19.90;99.90;;;;;;5158252;27;20438;-64
2022/07/16 07:08:43;;;;;;;1.00;0.73;;;19.90;99.90;;;;;;5145169;27;20422;-64
2022/07/16 07:11:19;;;;;;;0.67;0.53;;;19.80;99.90;;;;;;5144701;27;20415;-64
2022/07/16 07:13:51;;;;;;;1.60;0.90;;;19.70;99.90;;;;;;5164292;27;20518;-64
2022/07/16 07:16:23;;;;;;;1.13;0.80;;;19.70;99.90;;;;;;5160513;27;20528;-64
2022/07/16 07:18:54;;;;;;;1.00;0.67;;;19.60;99.90;;;;;;5144486;27;20453;-64
2022/07/16 07:21:25;;;;;;;1.50;0.90;;;19.70;99.90;;;;;;5159567;27;20505;-64
2022/07/16 07:23:57;;;;;;;1.10;1.00;;;19.60;99.90;;;;;;5136394;27;20829;-64
2022/07/16 07:26:27;;;;;;;0.73;0.70;;;19.60;99.90;;;;;;5147368;27;20440;-64
2022/07/16 07:29:00;;;;;;;0.70;0.50;;;19.60;99.90;;;;;;5148408;27;20445;-64
2022/07/16 07:31:31;;;;;;;1.43;1.00;;;19.50;99.90;;;;;;5148451;27;20533;-64
2022/07/16 07:34:02;;;;;;;0.70;0.70;;;19.50;99.90;;;;;;5127860;27;20462;-63
2022/07/16 07:36:33;;;;;;;0.73;0.67;;;19.40;99.90;;;;;;5144578;27;20552;-64
2022/07/16 07:39:04;;;;;;;0.90;0.70;;;19.30;99.90;;;;;;5144376;27;20424;-64
2022/07/16 07:41:35;;;;;;;1.57;0.90;;;19.30;99.90;;;;;;5144886;27;21159;-64
2022/07/16 07:44:07;;;;;;;1.83;0.83;;;19.30;99.90;;;;;;5151445;27;20768;-64
2022/07/16 07:46:38;;;;;;;0.83;0.63;;;19.30;99.90;;;;;;5148723;27;20422;-64
2022/07/16 07:49:10;;;;;;;0.70;0.60;;;19.20;99.90;;;;;;5164569;27;20551;-64
2022/07/16 07:51:42;;;;;;;1.10;0.90;;;19.10;99.90;;;;;;5163165;27;20436;-65
2022/07/16 07:54:13;;;;;;;0.60;0.60;;;19.10;99.90;;;;;;5140316;27;20437;-64
2022/07/16 07:56:44;;;;;;;1.27;0.53;;;19.20;99.90;;;;;;5152814;27;20480;-65
2022/07/16 07:59:16;;;;;;;0.70;0.60;;;19.20;99.90;;;;;;5157830;27;20457;-64
2022/07/16 08:01:47;;;;;;;0.83;0.63;;;19.10;99.90;;;;;;5160916;27;20487;-64
2022/07/16 08:04:18;;;;;;;1.00;0.90;;;19.10;99.90;;;;;;5143094;27;20539;-64
2022/07/16 08:06:49;;;;;;;1.30;0.87;;;19.00;99.90;;;;;;5142643;27;20460;-65
2022/07/16 08:09:20;;;;;;;0.87;0.83;;;19.00;99.90;;;;;;5143888;27;20416;-64
2022/07/16 08:11:51;;;;;;;0.47;0.47;;;19.00;99.90;;;;;;5146525;27;20426;-64
2022/07/16 08:14:23;;;;;;;1.33;0.80;;;19.00;99.90;;;;;;5163352;27;20451;-64
2022/07/16 08:16:57;;;;;;;0.67;0.67;;;19.00;99.90;;;;;;5163293;27;20978;-64
2022/07/16 08:19:28;;;;;;;1.43;0.67;;;19.00;99.90;;;;;;5163883;27;20451;-64
2022/07/16 08:21:59;;;;;;;0.80;0.60;;;19.00;99.90;;;;;;5152521;27;20437;-64
2022/07/16 08:27:17;;;;;;;0.83;0.50;;;18.90;99.90;;;;;;5143797;27;20549;-64
2022/07/16 08:29:50;;;;;;;0.50;0.50;;;18.90;99.90;;;;;;5137788;27;20464;-64
2022/07/16 08:32:20;;;;;;;0.87;0.57;;;18.90;99.90;;;;;;5155117;27;20455;-64
2022/07/16 08:34:51;;;;;;;0.80;0.50;;;18.80;99.90;;;;;;5152930;27;20507;-64
2022/07/16 08:37:35;;;;;;;1.20;0.70;;;18.80;99.90;;;;;;5163141;27;20483;-64
2022/07/16 08:40:08;;;;;;;0.70;0.40;;;18.80;99.90;;;;;;5146409;27;20433;-65
2022/07/16 08:42:39;;;;;;;0.80;0.50;;;18.70;99.90;;;;;;5161838;27;20406;-64
2022/07/16 08:45:13;;;;;;;0.67;0.60;;;18.70;99.90;;;;;;5163142;27;20423;-64
2022/07/16 08:47:44;;;;;;;1.00;0.60;;;18.70;99.90;;;;;;5146729;27;20787;-64
2022/07/16 08:50:16;;;;;;;0.70;0.50;;;18.70;99.90;;;;;;5141481;27;20451;-64
2022/07/16 08:52:51;;;;;;;0.70;0.67;;;18.60;99.90;;;;;;5143150;27;20477;-64
2022/07/16 08:55:25;;;;;;;0.63;0.50;;;18.60;99.90;;;;;;5142985;27;20423;-64
2022/07/16 08:57:58;;;;;;;0.50;0.50;;;18.60;99.90;;;;;;5160500;27;20442;-64
2022/07/16 09:00:30;;;;;;;0.80;0.80;;;18.60;99.90;;;;;;5149187;27;20464;-64
2022/07/16 09:03:02;;;;;;;0.67;0.67;;;18.50;99.90;;;;;;5144701;27;20542;-64
2022/07/16 09:05:32;;;;;;;0.80;0.80;;;18.60;99.90;;;;;;5136394;27;20532;-64
2022/07/16 09:08:04;;;;;;;0.53;0.53;;;18.50;99.90;;;;;;5142830;27;20427;-64
2022/07/16 09:10:38;;;;;;;0.60;0.60;;;18.50;99.90;;;;;;5154011;27;20556;-65
2022/07/16 09:13:11;;;;;;;0.70;0.70;;;18.50;99.90;;;;;;5165960;27;20412;-64
2022/07/16 09:15:45;;;;;;;1.10;0.80;;;18.50;99.90;;;;;;5166983;27;20483;-64
2022/07/16 09:18:21;;;;;;;0.70;0.53;;;18.40;99.90;;;;;;5167245;27;20491;-64
2022/07/16 09:20:55;;;;;;;0.60;0.53;;;18.40;99.90;;;;;;5150425;27;20443;-64
2022/07/16 09:23:28;;;;;;;1.20;0.60;;;18.30;99.90;;;;;;5167162;27;20419;-64
2022/07/16 09:26:09;;;;;;;0.70;0.70;;;18.30;99.90;;;;;;5166785;27;20912;-64
2022/07/16 09:28:42;;;;;;;0.70;0.70;;;18.40;99.90;;;;;;5150904;27;20426;-64
2022/07/16 09:31:34;;;;;;;0.83;0.60;;;18.40;99.90;;;;;;5143657;27;20491;-64
2022/07/16 09:34:08;;;;;;;1.10;0.77;;;18.30;99.90;;;;;;5155190;27;20431;-64
2022/07/16 09:36:40;;;;;;;1.50;0.63;;;18.30;99.90;;;;;;5145653;27;20531;-64
2022/07/16 09:39:11;;;;;;;1.10;1.00;;;18.30;99.90;;;;;;5130088;27;20456;-64
2022/07/16 09:41:46;;;;;;;2.27;0.90;;;18.20;99.90;;;;;;5147480;27;20424;-64
2022/07/16 09:44:18;;;;;;;0.83;0.80;;;18.20;99.90;;;;;;5146636;27;20570;-64
2022/07/16 09:47:05;;;;;;;0.70;0.70;;;18.20;99.90;;;;;;5146080;27;20445;-64
2022/07/16 09:49:37;;;;;;;1.10;0.80;;;18.20;99.90;;;;;;5148500;27;20459;-64
2022/07/16 09:52:09;;;;;;;0.70;0.70;;;18.20;99.90;;;;;;5157104;27;20430;-64
2022/07/16 09:54:40;;;;;;;1.20;1.10;;;18.20;99.90;;;;;;5153503;27;20431;-64
2022/07/16 09:57:15;;;;;;;1.27;0.73;;;18.20;99.90;;;;;;5129537;27;20508;-64
2022/07/16 09:59:47;;;;;;;1.47;0.80;;;18.20;99.90;;;;;;5155401;27;20533;-64
2022/07/16 10:02:31;;;;;;;1.00;0.80;;;18.10;99.90;;;;;;5151817;27;20458;-64
2022/07/16 10:05:02;;;;;;;0.77;0.77;;;18.10;99.90;;;;;;5145919;27;20513;-64
2022/07/16 10:07:35;;;;;;;0.73;0.73;;;18.10;99.90;;;;;;5146021;27;20423;-64
2022/07/16 10:10:06;;;;;;;0.53;0.53;;;18.10;99.90;;;;;;5145781;27;20438;-64
2022/07/16 10:12:37;;;;;;;0.57;0.57;;;18.20;99.90;;;;;;5161359;27;20913;-64
2022/07/16 10:15:09;;;;;;;0.80;0.73;;;18.20;99.90;;;;;;5165435;27;20461;-64
2022/07/16 10:17:41;;;;;;;1.43;1.30;;;18.30;99.90;;;;;;5154238;27;20499;-64
2022/07/16 10:20:14;;;;;;;0.87;0.70;;;18.30;99.90;;;;;;5144996;27;20430;-64
2022/07/16 10:22:47;;;;;;;1.90;0.70;;;18.40;99.90;;;;;;5156027;27;20822;-64
2022/07/16 10:25:20;;;;;;;1.00;0.80;;;18.40;99.90;;;;;;5146600;27;20436;-64
2022/07/16 10:27:54;;;;;;;2.10;0.93;;;18.40;99.90;;;;;;5145787;27;20452;-64
2022/07/16 10:30:27;;;;;;;0.53;0.50;;;18.40;99.90;;;;;;5144201;27;20924;-64
2022/07/16 10:33:13;;;;;;;0.80;0.80;;;18.50;99.90;;;;;;5152539;27;20926;-64
2022/07/16 10:35:47;;;;;;;1.17;0.70;;;18.50;99.90;;;;;;5144294;27;20468;-64
2022/07/16 10:38:21;;;;;;;0.80;0.80;;;18.60;99.90;;;;;;5147079;27;20443;-64
2022/07/16 10:41:15;;;;;;;0.80;0.80;;;18.70;99.90;;;;;;5145174;27;20437;-64
2022/07/16 10:44:10;;;;;;;0.60;0.60;;;18.70;99.90;;;;;;5142444;27;20449;-64
2022/07/16 10:46:53;;;;;;;1.17;0.70;;;18.70;99.90;;;;;;5131318;27;20419;-64
2022/07/16 10:49:27;;;;;;;0.90;0.80;;;18.70;99.90;;;;;;5145125;27;20431;-64
2022/07/16 10:51:59;;;;;;;1.10;0.70;;;18.80;99.90;;;;;;5147157;27;20494;-64
2022/07/16 10:54:33;;;;;;;0.90;0.70;;;18.80;99.90;;;;;;5165137;27;20490;-64
2022/07/16 10:57:04;;;;;;;1.00;0.70;;;18.80;99.90;;;;;;5164932;27;20432;-64
2022/07/16 10:59:43;;;;;;;1.63;0.90;;;18.90;99.90;;;;;;5165360;27;20443;-64
2022/07/16 11:02:16;;;;;;;1.17;0.90;;;18.90;99.90;;;;;;5146471;27;20479;-64
2022/07/16 11:04:54;;;;;;;1.00;0.90;;;18.90;99.90;;;;;;5148400;27;20442;-64
2022/07/16 11:07:25;;;;;;;0.70;0.70;;;18.90;99.90;;;;;;5137821;27;20490;-65
2022/07/16 11:09:57;;;;;;;0.90;0.70;;;18.90;99.90;;;;;;5144678;27;20457;-64
2022/07/16 11:12:31;;;;;;;1.73;1.07;;;18.90;99.90;;;;;;5146280;27;20453;-64
2022/07/16 11:15:03;;;;;;;1.13;0.50;;;19.00;99.90;;;;;;5144552;27;20448;-64
2022/07/16 11:17:34;;;;;;;1.67;0.73;;;19.00;99.90;;;;;;5144867;27;20445;-64
2022/07/16 11:20:09;;;;;;;0.83;0.77;;;19.00;99.90;;;;;;5144393;27;20457;-64
2022/07/16 11:22:40;;;;;;;0.73;0.73;;;19.00;99.90;;;;;;5153315;27;20440;-64
2022/07/16 11:25:12;;;;;;;1.50;0.60;;;19.00;99.90;;;;;;5164293;27;20434;-64
2022/07/16 11:27:43;;;;;;;1.00;0.70;;;19.00;99.90;;;;;;5165004;27;20462;-64
2022/07/16 11:30:14;;;;;;;1.17;0.77;;;19.00;99.90;;;;;;5162614;27;20452;-64
2022/07/16 11:32:48;;;;;;;0.77;0.70;;;19.00;99.90;;;;;;5158818;27;20437;-64
2022/07/16 11:35:21;;;;;;;0.67;0.67;;;19.10;99.90;;;;;;5142637;27;20474;-64
2022/07/16 11:37:53;;;;;;;0.60;0.40;;;19.00;99.90;;;;;;5144425;27;20432;-64
2022/07/16 11:40:37;;;;;;;0.70;0.63;;;19.10;99.90;;;;;;5138683;27;20905;-64
2022/07/16 11:43:08;;;;;;;0.73;0.47;;;19.10;99.90;;;;;;5157540;27;20418;-64
2022/07/16 11:45:42;;;;;;;0.70;0.70;;;19.10;99.90;;;;;;5164269;27;20439;-64
2022/07/16 11:48:15;;;;;;;1.07;0.90;;;19.00;99.90;;;;;;5165127;27;20445;-64
2022/07/16 11:50:49;;;;;;;0.90;0.90;;;19.00;99.90;;;;;;5163317;27;20482;-64
2022/07/16 11:53:30;;;;;;;0.50;0.30;;;19.00;99.90;;;;;;5162319;27;20414;-64
2022/07/16 11:56:02;;;;;;;0.60;0.60;;;19.00;99.90;;;;;;5143722;27;20429;-64
2022/07/16 11:58:33;;;;;;;0.63;0.63;;;19.00;99.90;;;;;;5144477;27;20462;-64
2022/07/16 12:01:04;;;;;;;1.43;0.60;;;19.10;99.90;;;;;;5128138;27;20430;-64
2022/07/16 12:03:36;;;;;;;1.10;0.40;;;19.00;99.90;;;;;;5147742;27;20468;-64
2022/07/16 12:06:13;;;;;;;0.60;0.50;;;19.00;99.90;;;;;;5155185;27;20968;-64
2022/07/16 12:08:53;;;;;;;1.07;0.70;;;19.00;99.90;;;;;;5152514;27;20914;-64
2022/07/16 12:11:32;;;;;;;0.67;0.50;;;19.00;99.90;;;;;;5143359;27;20451;-64
2022/07/16 12:14:03;;;;;;;0.67;0.67;;;19.00;99.90;;;;;;5162417;27;20419;-64
2022/07/16 12:16:34;;;;;;;0.70;0.70;;;19.00;99.90;;;;;;5163681;27;20474;-64
2022/07/16 12:19:07;;;;;;;0.70;0.50;;;18.90;99.90;;;;;;5163611;27;20476;-64
2022/07/16 12:21:41;;;;;;;0.57;0.57;;;18.90;99.90;;;;;;5163577;27;20436;-64
2022/07/16 12:24:12;;;;;;;0.73;0.60;;;19.00;99.90;;;;;;5163437;27;20423;-64
2022/07/16 12:26:43;;;;;;;0.70;0.63;;;18.90;99.90;;;;;;5147314;27;20788;-64
2022/07/16 12:29:15;;;;;;;0.77;0.60;;;19.00;99.90;;;;;;5143885;27;20445;-64
2022/07/16 12:31:46;;;;;;;1.00;0.70;;;18.90;99.90;;;;;;5153383;27;20433;-64
2022/07/16 12:34:17;;;;;;;1.20;0.77;;;18.90;99.90;;;;;;5162328;27;20758;-65
2022/07/16 12:36:50;;;;;;;0.80;0.60;;;18.90;99.90;;;;;;5148732;27;20801;-64
2022/07/16 12:39:22;;;;;;;2.93;0.70;;;18.90;99.90;;;;;;5143439;27;20460;-64
2022/07/16 12:41:59;;;;;;;0.97;0.80;;;18.80;99.90;;;;;;5143436;27;20419;-64
2022/07/16 12:44:29;;;;;;;0.90;0.60;;;18.90;99.90;;;;;;5144806;27;20779;-64
2022/07/16 12:47:01;;;;;;;0.87;0.80;;;18.80;99.90;;;;;;5143664;27;20428;-64
2022/07/16 12:49:32;;;;;;;1.00;1.00;;;18.80;99.90;;;;;;5147595;27;20451;-64
2022/07/16 12:52:05;;;;;;;0.90;0.80;;;18.80;99.90;;;;;;5146853;27;20422;-64
2022/07/16 13:00:10;;;;;;;1.10;1.00;;;18.70;99.90;;;;;;5147028;27;20969;-64
2022/07/16 13:02:40;;;;;;;0.90;0.73;;;18.80;99.90;;;;;;5147350;27;20450;-64
2022/07/16 13:05:11;;;;;;;1.30;1.13;;;18.80;99.90;;;;;;5151445;27;20513;-64
2022/07/16 13:07:44;;;;;;;1.30;1.20;;;18.70;99.90;;;;;;5147354;27;20498;-65
2022/07/16 13:10:14;;;;;;;1.17;1.07;;;18.70;99.90;;;;;;5147083;27;20419;-64
2022/07/16 13:12:45;;;;;;;1.27;1.17;;;18.70;99.90;;;;;;5147866;27;20977;-64
2022/07/16 13:15:17;;;;;;;1.27;1.17;;;18.80;99.90;;;;;;5167213;27;20444;-64
2022/07/16 13:17:48;;;;;;;1.10;1.00;;;18.90;99.90;;;;;;5167308;27;20433;-64
2022/07/16 13:20:20;;;;;;;1.20;1.10;;;18.80;99.90;;;;;;5166648;27;20458;-64
2022/07/16 13:22:52;;;;;;;1.00;0.90;;;18.90;99.90;;;;;;5165722;27;20448;-66
2022/07/16 13:25:23;;;;;;;0.80;0.80;;;18.90;99.90;;;;;;5160700;27;20410;-64